createdAt,value
2023-03-06T00:00:14.684Z,993
2023-03-06T00:01:15.661Z,992.9
2023-03-06T00:02:16.644Z,993
2023-03-06T00:03:17.730Z,993
2023-03-06T00:04:18.668Z,993.1
2023-03-06T00:05:19.709Z,993.1
2023-03-06T00:06:20.622Z,993.1
2023-03-06T00:07:21.686Z,993.1
2023-03-06T00:08:22.662Z,992.8
2023-03-06T00:09:23.602Z,993
2023-03-06T00:10:24.675Z,993.1
2023-03-06T00:11:25.690Z,993.1
2023-03-06T00:12:26.653Z,993.1
2023-03-06T00:13:27.704Z,993.1
2023-03-06T00:14:28.646Z,993
2023-03-06T00:15:29.771Z,993
2023-03-06T00:16:30.692Z,993
2023-03-06T00:17:31.664Z,992.9
2023-03-06T00:18:32.631Z,993
2023-03-06T00:19:33.685Z,993
2023-03-06T00:20:34.650Z,993
2023-03-06T00:21:35.669Z,993
2023-03-06T00:22:36.723Z,993.2
2023-03-06T00:23:37.677Z,993
2023-03-06T00:24:38.663Z,993
2023-03-06T00:25:39.661Z,993
2023-03-06T00:26:40.664Z,993
2023-03-06T00:27:41.769Z,993
2023-03-06T00:28:42.699Z,993
2023-03-06T00:29:43.663Z,993
2023-03-06T00:30:44.716Z,992.9
2023-03-06T00:31:45.790Z,993
2023-03-06T00:32:46.724Z,992.9
2023-03-06T00:33:47.708Z,992.9
2023-03-06T00:34:48.667Z,992.9
2023-03-06T00:35:49.840Z,992.9
2023-03-06T00:36:50.661Z,992.9
2023-03-06T00:37:51.717Z,992.9
2023-03-06T00:38:52.690Z,992.9
2023-03-06T00:39:53.640Z,992.8
2023-03-06T00:40:54.686Z,992.8
2023-03-06T00:41:55.711Z,992.8
2023-03-06T00:42:56.691Z,992.8
2023-03-06T00:43:57.670Z,992.8
2023-03-06T00:44:58.721Z,992.8
2023-03-06T00:45:59.816Z,992.8
2023-03-06T00:47:00.664Z,992.8
2023-03-06T00:48:01.798Z,992.8
2023-03-06T00:49:02.689Z,992.8
2023-03-06T00:50:03.700Z,992.7
2023-03-06T00:51:04.689Z,992.7
2023-03-06T00:52:05.790Z,992.7
2023-03-06T00:53:06.671Z,992.7
2023-03-06T00:54:07.708Z,992.7
2023-03-06T00:55:08.660Z,992.7
2023-03-06T00:56:09.709Z,992.6
2023-03-06T00:57:10.680Z,992.7
2023-03-06T00:58:11.699Z,992.7
2023-03-06T00:59:12.660Z,992.6
2023-03-06T01:00:13.680Z,992.6
2023-03-06T01:01:14.842Z,992.5
2023-03-06T01:02:15.709Z,992.6
2023-03-06T01:03:16.694Z,992.5
2023-03-06T01:04:17.742Z,992.5
2023-03-06T01:05:18.678Z,992.5
2023-03-06T01:06:19.678Z,992.5
2023-03-06T01:07:20.662Z,992.5
2023-03-06T01:08:21.657Z,992.5
2023-03-06T01:09:22.738Z,992.5
2023-03-06T01:10:23.719Z,992.5
2023-03-06T01:11:24.777Z,992.5
2023-03-06T01:12:25.676Z,992.5
2023-03-06T01:13:26.718Z,992.4
2023-03-06T01:14:27.712Z,992.5
2023-03-06T01:15:28.677Z,992.5
2023-03-06T01:16:29.785Z,992.5
2023-03-06T01:17:30.692Z,992.5
2023-03-06T01:18:31.659Z,992.4
2023-03-06T01:19:32.695Z,992.5
2023-03-06T01:20:33.696Z,992.4
2023-03-06T01:21:34.735Z,992.4
2023-03-06T01:22:35.715Z,992.4
2023-03-06T01:23:36.714Z,992.4
2023-03-06T01:24:37.646Z,992.4
2023-03-06T01:25:38.714Z,992.3
2023-03-06T01:26:39.656Z,992.3
2023-03-06T01:27:40.702Z,992.3
2023-03-06T01:28:41.654Z,992.3
2023-03-06T01:29:42.675Z,992.3
2023-03-06T01:30:43.676Z,992.3
2023-03-06T01:31:44.844Z,992.3
2023-03-06T01:32:45.752Z,992.3
2023-03-06T01:33:46.692Z,992.3
2023-03-06T01:34:47.682Z,992.2
2023-03-06T01:35:48.787Z,992.2
2023-03-06T01:36:49.696Z,992.2
2023-03-06T01:37:50.815Z,991.5
2023-03-06T01:38:51.656Z,992
2023-03-06T01:39:52.695Z,992.2
2023-03-06T01:40:53.697Z,992.2
2023-03-06T01:41:54.707Z,992.3
2023-03-06T01:42:55.777Z,992.2
2023-03-06T01:43:56.786Z,992.2
2023-03-06T01:44:57.722Z,992.2
2023-03-06T01:45:58.772Z,992.2
2023-03-06T01:46:59.680Z,992.2
2023-03-06T01:48:00.668Z,992.1
2023-03-06T01:49:01.761Z,992.1
2023-03-06T01:50:02.687Z,992.1
2023-03-06T01:51:03.781Z,992.1
2023-03-06T01:52:04.706Z,992.1
2023-03-06T01:53:05.700Z,992.2
2023-03-06T01:54:06.805Z,992.1
2023-03-06T01:55:07.719Z,992.1
2023-03-06T01:56:08.703Z,992.1
2023-03-06T01:57:09.679Z,992.1
2023-03-06T01:58:10.682Z,992.1
2023-03-06T01:59:11.706Z,992.1
2023-03-06T02:00:12.789Z,992.1
2023-03-06T02:01:13.779Z,992.1
2023-03-06T02:02:14.824Z,992.1
2023-03-06T02:06:29.777Z,992
2023-03-06T02:07:30.695Z,992
2023-03-06T02:08:31.698Z,992
2023-03-06T02:09:32.656Z,992
2023-03-06T02:10:33.784Z,991.9
2023-03-06T02:11:34.746Z,991.9
2023-03-06T02:12:35.736Z,992
2023-03-06T02:13:36.722Z,991.9
2023-03-06T02:14:37.726Z,992
2023-03-06T02:15:38.856Z,991.9
2023-03-06T02:16:39.794Z,991.9
2023-03-06T02:17:40.712Z,991.9
2023-03-06T02:18:41.711Z,991.9
2023-03-06T02:19:42.757Z,991.9
2023-03-06T02:20:43.760Z,991.9
2023-03-06T02:21:44.743Z,991.9
2023-03-06T02:22:45.737Z,991.9
2023-03-06T02:23:46.760Z,991.8
2023-03-06T02:24:47.718Z,991.8
2023-03-06T02:25:48.765Z,991.8
2023-03-06T02:26:49.800Z,991.8
2023-03-06T02:27:50.724Z,991.8
2023-03-06T02:28:51.765Z,991.8
2023-03-06T02:29:52.780Z,991.7
2023-03-06T02:30:53.858Z,991.7
2023-03-06T02:31:54.741Z,991.7
2023-03-06T02:32:55.756Z,991.7
2023-03-06T02:33:56.720Z,991.7
2023-03-06T02:34:57.798Z,991.8
2023-03-06T02:35:58.765Z,991.7
2023-03-06T02:36:59.757Z,991.6
2023-03-06T02:38:00.710Z,991.6
2023-03-06T02:39:01.778Z,991.6
2023-03-06T02:40:02.833Z,991.6
2023-03-06T02:41:03.759Z,991.5
2023-03-06T02:42:04.794Z,991.6
2023-03-06T02:43:05.738Z,991.6
2023-03-06T02:44:06.720Z,991.6
2023-03-06T02:45:07.698Z,991.5
2023-03-06T02:46:08.866Z,991.6
2023-03-06T02:47:09.777Z,991.5
2023-03-06T02:48:10.801Z,991.5
2023-03-06T02:49:11.838Z,991.5
2023-03-06T02:50:12.760Z,991.5
2023-03-06T02:51:13.859Z,991.5
2023-03-06T02:52:50.767Z,991.5
2023-03-06T02:53:37.834Z,991.5
2023-03-06T02:54:38.777Z,991.4
2023-03-06T02:55:39.759Z,991.4
2023-03-06T02:56:40.796Z,991.4
2023-03-06T02:57:41.712Z,991.4
2023-03-06T02:58:42.845Z,991.4
2023-03-06T02:59:43.797Z,991.4
2023-03-06T03:00:47.813Z,991.3
2023-03-06T03:01:48.826Z,991.4
2023-03-06T03:02:49.775Z,991.4
2023-03-06T03:03:50.809Z,991.4
2023-03-06T03:04:51.801Z,991.3
2023-03-06T03:05:52.752Z,991.3
2023-03-06T03:06:53.745Z,991.4
2023-03-06T03:07:54.793Z,991.3
2023-03-06T03:08:55.752Z,991.3
2023-03-06T03:09:56.711Z,991.3
2023-03-06T03:10:57.780Z,991.3
2023-03-06T03:11:58.759Z,991.3
2023-03-06T03:12:59.758Z,991.2
2023-03-06T03:14:00.720Z,991.2
2023-03-06T03:15:01.739Z,991.3
2023-03-06T03:16:02.937Z,991.2
2023-03-06T03:17:03.829Z,991.2
2023-03-06T03:18:04.816Z,991.1
2023-03-06T03:19:05.857Z,991.2
2023-03-06T03:20:06.728Z,991.2
2023-03-06T03:21:07.800Z,991.2
2023-03-06T03:22:08.733Z,991.1
2023-03-06T03:23:09.802Z,991.1
2023-03-06T03:24:10.747Z,991.3
2023-03-06T03:25:11.917Z,991.2
2023-03-06T03:26:12.736Z,991.1
2023-03-06T03:27:13.746Z,991.1
2023-03-06T03:28:14.735Z,991.1
2023-03-06T03:29:15.755Z,991
2023-03-06T03:30:16.735Z,991
2023-03-06T03:31:17.867Z,991
2023-03-06T03:32:18.778Z,991
2023-03-06T03:33:19.855Z,991
2023-03-06T03:34:20.764Z,991
2023-03-06T03:35:21.802Z,991
2023-03-06T03:36:22.807Z,991
2023-03-06T03:37:23.784Z,990.2
2023-03-06T03:38:24.817Z,990.8
2023-03-06T03:39:25.738Z,990.9
2023-03-06T03:40:26.741Z,991
2023-03-06T03:41:27.827Z,990.9
2023-03-06T03:42:28.738Z,990.9
2023-03-06T03:43:29.826Z,990.8
2023-03-06T03:44:30.781Z,990.8
2023-03-06T03:45:31.761Z,990.8
2023-03-06T03:46:32.812Z,990.8
2023-03-06T03:47:33.757Z,990.8
2023-03-06T03:48:34.820Z,990.8
2023-03-06T03:49:35.810Z,990.8
2023-03-06T03:50:36.818Z,990.8
2023-03-06T03:51:37.820Z,990.8
2023-03-06T03:52:38.776Z,990.8
2023-03-06T03:53:39.775Z,990.7
2023-03-06T03:54:40.832Z,990.8
2023-03-06T03:55:41.836Z,990.8
2023-03-06T03:56:42.815Z,990.8
2023-03-06T03:57:43.796Z,990.7
2023-03-06T03:58:44.755Z,990.8
2023-03-06T03:59:45.742Z,990.8
2023-03-06T04:00:46.814Z,990.7
2023-03-06T04:01:47.879Z,990.7
2023-03-06T04:02:48.795Z,990.7
2023-03-06T04:03:49.834Z,990.7
2023-03-06T04:04:50.832Z,990
2023-03-06T04:05:51.813Z,990.5
2023-03-06T04:06:52.756Z,990.6
2023-03-06T04:07:53.736Z,990.7
2023-03-06T04:08:54.863Z,990.6
2023-03-06T04:09:55.734Z,990.6
2023-03-06T04:10:56.776Z,990.6
2023-03-06T04:11:57.794Z,990.6
2023-03-06T04:12:58.797Z,990.6
2023-03-06T04:13:59.754Z,990.6
2023-03-06T04:15:00.807Z,990.6
2023-03-06T04:16:01.807Z,990.6
2023-03-06T04:17:02.753Z,990.5
2023-03-06T04:18:03.722Z,990.5
2023-03-06T04:19:04.776Z,990.6
2023-03-06T04:20:05.800Z,990.6
2023-03-06T04:21:06.815Z,990.6
2023-03-06T04:22:07.792Z,990.6
2023-03-06T04:23:08.753Z,990.6
2023-03-06T04:24:09.799Z,990.5
2023-03-06T04:25:10.735Z,990.5
2023-03-06T04:26:12.048Z,990.5
2023-03-06T04:27:13.833Z,990.5
2023-03-06T04:28:14.776Z,989.7
2023-03-06T04:29:15.803Z,990.3
2023-03-06T04:30:16.748Z,990.4
2023-03-06T04:31:17.889Z,990.5
2023-03-06T04:32:21.292Z,990.4
2023-03-06T04:33:19.756Z,990.2
2023-03-06T04:34:20.811Z,990.4
2023-03-06T04:35:21.794Z,990.5
2023-03-06T04:36:22.786Z,990.4
2023-03-06T04:37:23.775Z,990.4
2023-03-06T04:38:24.824Z,990.4
2023-03-06T04:39:25.778Z,990.3
2023-03-06T04:40:26.843Z,990.4
2023-03-06T04:41:27.813Z,990.3
2023-03-06T04:42:28.818Z,990.4
2023-03-06T04:43:29.794Z,990.3
2023-03-06T04:44:30.831Z,990.3
2023-03-06T04:45:31.880Z,990.4
2023-03-06T04:46:32.862Z,990.3
2023-03-06T04:47:33.838Z,990.3
2023-03-06T04:48:34.817Z,990.3
2023-03-06T04:49:35.819Z,990.2
2023-03-06T04:50:36.901Z,990.3
2023-03-06T04:51:37.816Z,990.3
2023-03-06T04:52:38.839Z,989.9
2023-03-06T04:53:39.877Z,990.2
2023-03-06T04:54:40.816Z,990.3
2023-03-06T04:55:41.797Z,990.3
2023-03-06T04:56:42.838Z,990.3
2023-03-06T04:57:43.806Z,990.3
2023-03-06T04:58:44.801Z,990.3
2023-03-06T04:59:45.840Z,990.3
2023-03-06T05:00:46.943Z,990.3
2023-03-06T05:01:47.900Z,990.3
2023-03-06T05:02:48.777Z,990.2
2023-03-06T05:03:49.850Z,990.2
2023-03-06T05:04:50.876Z,990.3
2023-03-06T05:05:51.866Z,990.3
2023-03-06T05:06:52.855Z,990.2
2023-03-06T05:07:53.814Z,990.3
2023-03-06T05:08:54.816Z,990.2
2023-03-06T05:09:55.833Z,990.2
2023-03-06T05:10:56.816Z,990.2
2023-03-06T05:11:57.784Z,990.4
2023-03-06T05:12:58.833Z,989.6
2023-03-06T05:13:59.793Z,990.1
2023-03-06T05:15:00.873Z,990.2
2023-03-06T05:16:01.740Z,990.2
2023-03-06T05:17:02.831Z,990.2
2023-03-06T05:18:03.783Z,990.2
2023-03-06T05:19:04.795Z,990.2
2023-03-06T05:20:05.792Z,990.2
2023-03-06T05:21:06.875Z,990.2
2023-03-06T05:22:07.850Z,990.2
2023-03-06T05:23:08.871Z,990.2
2023-03-06T05:24:09.886Z,990.2
2023-03-06T05:25:10.790Z,990.1
2023-03-06T05:26:12.123Z,990.2
2023-03-06T05:27:16.550Z,990.2
2023-03-06T05:28:14.795Z,990.2
2023-03-06T05:29:15.739Z,990.2
2023-03-06T05:30:16.830Z,990.2
2023-03-06T05:31:17.835Z,990.2
2023-03-06T05:32:18.831Z,990.2
2023-03-06T05:33:19.752Z,990.2
2023-03-06T05:34:20.869Z,990.2
2023-03-06T05:35:21.930Z,990.2
2023-03-06T05:36:22.849Z,990.2
2023-03-06T05:37:23.835Z,990.1
2023-03-06T05:38:24.893Z,989.8
2023-03-06T05:39:25.813Z,990.1
2023-03-06T05:40:26.847Z,990.1
2023-03-06T05:41:27.860Z,990.1
2023-03-06T05:42:28.897Z,990.1
2023-03-06T05:43:29.797Z,990.2
2023-03-06T05:44:30.896Z,990.2
2023-03-06T05:45:31.876Z,990.1
2023-03-06T05:46:32.895Z,990.2
2023-03-06T05:47:33.855Z,990.2
2023-03-06T05:48:34.817Z,990.1
2023-03-06T05:49:35.853Z,990.2
2023-03-06T05:50:36.919Z,990.3
2023-03-06T05:51:37.848Z,990.2
2023-03-06T05:52:38.859Z,990.1
2023-03-06T05:53:39.858Z,990.2
2023-03-06T05:54:40.869Z,990.2
2023-03-06T05:55:41.895Z,990.2
2023-03-06T05:56:42.995Z,990.1
2023-03-06T05:57:43.837Z,990.2
2023-03-06T05:58:44.809Z,990.1
2023-03-06T05:59:46.433Z,990.1
2023-03-06T06:00:46.950Z,990.2
2023-03-06T06:01:47.811Z,990.2
2023-03-06T06:02:48.853Z,990.1
2023-03-06T06:03:49.842Z,990.1
2023-03-06T06:04:50.814Z,990.1
2023-03-06T06:05:51.836Z,990.1
2023-03-06T06:06:52.941Z,990.1
2023-03-06T06:07:53.884Z,990.1
2023-03-06T06:08:54.893Z,990.1
2023-03-06T06:09:55.810Z,990.2
2023-03-06T06:10:56.838Z,990.2
2023-03-06T06:11:57.854Z,990.1
2023-03-06T06:12:58.913Z,990.2
2023-03-06T06:13:59.839Z,990.2
2023-03-06T06:15:00.855Z,990.1
2023-03-06T06:16:01.862Z,990.1
2023-03-06T06:17:02.793Z,990.1
2023-03-06T06:18:03.874Z,990.2
2023-03-06T06:19:04.803Z,990.1
2023-03-06T06:20:05.832Z,990.1
2023-03-06T06:21:06.862Z,990.1
2023-03-06T06:22:07.909Z,990.1
2023-03-06T06:23:08.932Z,990.1
2023-03-06T06:24:09.833Z,990.1
2023-03-06T06:25:10.800Z,990.2
2023-03-06T06:26:12.297Z,990.2
2023-03-06T06:27:13.828Z,990.2
2023-03-06T06:28:14.814Z,990.3
2023-03-06T06:29:15.840Z,990.2
2023-03-06T06:30:16.934Z,990.2
2023-03-06T06:31:22.631Z,990.2
2023-03-06T06:32:25.916Z,990.2
2023-03-06T06:33:26.840Z,990.2
2023-03-06T06:34:27.873Z,990.2
2023-03-06T06:35:28.875Z,990.2
2023-03-06T06:36:29.839Z,990.2
2023-03-06T06:37:30.858Z,989.9
2023-03-06T06:38:31.954Z,990.2
2023-03-06T06:39:32.822Z,990.2
2023-03-06T06:40:33.853Z,990.2
2023-03-06T06:42:15.348Z,990.2
2023-03-06T06:42:39.763Z,990.3
2023-03-06T06:43:36.894Z,990.3
2023-03-06T06:44:37.856Z,990.3
2023-03-06T06:45:38.977Z,990.2
2023-03-06T06:47:40.790Z,990.2
2023-03-06T06:48:41.882Z,990.2
2023-03-06T06:49:42.880Z,990.2
2023-03-06T06:50:43.853Z,990.3
2023-03-06T06:51:44.855Z,990.3
2023-03-06T06:52:45.847Z,990.4
2023-03-06T06:53:46.872Z,990.3
2023-03-06T06:54:47.894Z,990.3
2023-03-06T06:55:48.855Z,990.3
2023-03-06T06:56:49.826Z,990.3
2023-03-06T06:57:53.481Z,990.3
2023-03-06T06:59:01.303Z,990.3
2023-03-06T06:59:55.896Z,990.3
2023-03-06T07:00:56.893Z,990.3
2023-03-06T07:01:57.915Z,990.3
2023-03-06T07:02:58.858Z,990.3
2023-03-06T07:03:59.877Z,990.2
2023-03-06T07:05:04.449Z,990.2
2023-03-06T07:06:01.795Z,990.2
2023-03-06T07:07:02.896Z,990.2
2023-03-06T07:08:03.862Z,990.2
2023-03-06T07:09:04.818Z,990.2
2023-03-06T07:10:05.838Z,990.2
2023-03-06T07:11:06.814Z,990.2
2023-03-06T07:12:07.842Z,990.2
2023-03-06T07:13:08.883Z,990.2
2023-03-06T07:14:09.880Z,990.2
2023-03-06T07:15:10.894Z,990.2
2023-03-06T07:16:12.526Z,990.2
2023-03-06T07:17:13.913Z,990.2
2023-03-06T07:18:14.834Z,990.3
2023-03-06T07:19:15.900Z,990.3
2023-03-06T07:20:16.920Z,989.4
2023-03-06T07:21:17.796Z,990
2023-03-06T07:22:18.874Z,990.1
2023-03-06T07:23:20.037Z,990.3
2023-03-06T07:24:20.897Z,990.3
2023-03-06T07:25:21.889Z,990.3
2023-03-06T07:26:22.936Z,990.3
2023-03-06T07:27:24.019Z,990.3
2023-03-06T07:28:24.888Z,990.3
2023-03-06T07:29:25.870Z,990.3
2023-03-06T07:30:26.833Z,990.2
2023-03-06T07:31:27.845Z,990.3
2023-03-06T07:32:28.866Z,990.3
2023-03-06T07:33:29.914Z,990.3
2023-03-06T07:34:30.876Z,990.3
2023-03-06T07:35:32.025Z,990.3
2023-03-06T07:36:32.863Z,990.3
2023-03-06T07:37:33.812Z,990.4
2023-03-06T07:38:34.918Z,990.4
2023-03-06T07:39:35.885Z,990.3
2023-03-06T07:40:36.836Z,990.3
2023-03-06T07:41:37.896Z,990.4
2023-03-06T07:42:38.849Z,990.3
2023-03-06T07:43:39.867Z,990.3
2023-03-06T07:44:40.860Z,990.3
2023-03-06T07:45:41.857Z,990.3
2023-03-06T07:46:42.904Z,990.3
2023-03-06T07:47:43.854Z,989.8
2023-03-06T07:48:44.937Z,990.3
2023-03-06T07:49:45.901Z,990.3
2023-03-06T07:50:46.855Z,990.3
2023-03-06T07:51:47.919Z,990.3
2023-03-06T07:52:48.903Z,990.3
2023-03-06T07:53:49.921Z,990.3
2023-03-06T07:54:50.901Z,990.3
2023-03-06T07:55:51.882Z,990.3
2023-03-06T07:56:52.920Z,990.3
2023-03-06T07:57:53.939Z,989.9
2023-03-06T07:58:56.126Z,990.2
2023-03-06T07:59:55.917Z,990.3
2023-03-06T08:00:56.929Z,990.3
2023-03-06T08:01:57.903Z,990.4
2023-03-06T08:02:58.931Z,990.3
2023-03-06T08:03:59.973Z,990.4
2023-03-06T08:05:00.943Z,990.4
2023-03-06T08:06:01.901Z,990.4
2023-03-06T08:07:02.900Z,990.4
2023-03-06T08:08:03.841Z,990.4
2023-03-06T08:09:04.887Z,990.4
2023-03-06T08:10:05.940Z,990.4
2023-03-06T08:11:06.913Z,989.9
2023-03-06T08:12:07.919Z,990.3
2023-03-06T08:13:08.873Z,990.3
2023-03-06T08:14:09.851Z,990.4
2023-03-06T08:15:10.849Z,990.4
2023-03-06T08:16:11.901Z,990.5
2023-03-06T08:17:12.908Z,990.4
2023-03-06T08:18:13.900Z,990.5
2023-03-06T08:19:14.817Z,990.4
2023-03-06T08:20:15.928Z,990.4
2023-03-06T08:21:16.894Z,990.4
2023-03-06T08:22:17.899Z,990.4
2023-03-06T08:23:18.884Z,990.4
2023-03-06T08:24:19.906Z,990.3
2023-03-06T08:25:20.914Z,990.2
2023-03-06T08:26:21.940Z,990.4
2023-03-06T08:27:22.894Z,990.4
2023-03-06T08:28:23.938Z,990.3
2023-03-06T08:29:24.896Z,990.3
2023-03-06T08:30:25.885Z,990.3
2023-03-06T08:31:26.963Z,990.3
2023-03-06T08:32:27.926Z,990.4
2023-03-06T08:33:28.975Z,990.4
2023-03-06T08:34:29.885Z,990.4
2023-03-06T08:35:30.923Z,990.3
2023-03-06T08:36:31.914Z,990.4
2023-03-06T08:37:32.967Z,990.3
2023-03-06T08:38:33.935Z,990.3
2023-03-06T08:39:34.906Z,990.3
2023-03-06T08:40:35.880Z,990.3
2023-03-06T08:41:36.947Z,990.3
2023-03-06T08:42:37.965Z,990.3
2023-03-06T08:43:38.900Z,990.4
2023-03-06T08:44:39.990Z,990.3
2023-03-06T08:45:41.024Z,990.3
2023-03-06T08:46:41.923Z,990.4
2023-03-06T08:47:42.935Z,990.4
2023-03-06T08:48:43.873Z,990.4
2023-03-06T08:49:44.859Z,990.3
2023-03-06T08:50:45.913Z,990.4
2023-03-06T08:51:46.945Z,990.4
2023-03-06T08:52:47.954Z,990.4
2023-03-06T08:53:48.913Z,990.3
2023-03-06T08:54:49.926Z,990.4
2023-03-06T08:55:50.995Z,990.4
2023-03-06T08:56:51.900Z,990.4
2023-03-06T08:57:52.972Z,990.4
2023-03-06T08:58:53.886Z,990.3
2023-03-06T08:59:54.953Z,990.3
2023-03-06T09:00:56.046Z,990.3
2023-03-06T09:01:56.994Z,990
2023-03-06T09:02:57.935Z,990.3
2023-03-06T09:03:58.912Z,990.4
2023-03-06T09:04:59.994Z,990.4
2023-03-06T09:06:00.940Z,990.4
2023-03-06T09:07:01.866Z,990.4
2023-03-06T09:08:02.914Z,990.4
2023-03-06T09:09:03.936Z,990.4
2023-03-06T09:10:04.960Z,990.4
2023-03-06T09:11:05.912Z,990.5
2023-03-06T09:12:06.903Z,990.4
2023-03-06T09:13:07.904Z,990.3
2023-03-06T09:14:08.878Z,990.3
2023-03-06T09:15:09.854Z,990.4
2023-03-06T09:16:11.016Z,990.4
2023-03-06T09:17:11.890Z,990.4
2023-03-06T09:18:12.878Z,990.5
2023-03-06T09:19:13.916Z,990.4
2023-03-06T09:20:14.980Z,990.5
2023-03-06T09:21:15.978Z,990.5
2023-03-06T09:22:16.903Z,990.5
2023-03-06T09:23:17.955Z,990.5
2023-03-06T09:24:18.895Z,990.4
2023-03-06T09:25:19.897Z,990.4
2023-03-06T09:26:21.038Z,990.5
2023-03-06T09:27:21.916Z,990.5
2023-03-06T09:28:22.918Z,990.4
2023-03-06T09:29:24.017Z,990.4
2023-03-06T09:30:24.920Z,990.4
2023-03-06T09:31:25.939Z,990.5
2023-03-06T09:32:26.998Z,990.4
2023-03-06T09:33:27.968Z,990.4
2023-03-06T09:34:28.935Z,990.4
2023-03-06T09:35:29.913Z,990.4
2023-03-06T09:36:30.958Z,990.5
2023-03-06T09:37:31.833Z,990.4
2023-03-06T09:38:32.949Z,990.4
2023-03-06T09:39:33.980Z,990.4
2023-03-06T09:40:35.009Z,990.3
2023-03-06T09:41:35.878Z,990.3
2023-03-06T09:42:37.105Z,990.3
2023-03-06T09:43:37.932Z,990.4
2023-03-06T09:44:38.934Z,990.3
2023-03-06T09:45:40.070Z,990.3
2023-03-06T09:46:40.879Z,990.3
2023-03-06T09:47:42.026Z,990.2
2023-03-06T09:48:42.946Z,990.2
2023-03-06T09:49:43.923Z,990.2
2023-03-06T09:50:44.896Z,990.2
2023-03-06T09:51:45.946Z,990.2
2023-03-06T09:52:46.948Z,990.2
2023-03-06T09:53:47.918Z,990.2
2023-03-06T09:54:48.933Z,990.2
2023-03-06T09:55:49.918Z,990.2
2023-03-06T09:56:50.976Z,990.3
2023-03-06T09:57:52.331Z,990.2
2023-03-06T09:58:52.883Z,990.2
2023-03-06T09:59:53.979Z,990.3
2023-03-06T10:00:54.896Z,990.2
2023-03-06T10:01:56.075Z,990.2
2023-03-06T10:02:57.136Z,990.2
2023-03-06T10:03:57.890Z,990.2
2023-03-06T10:04:58.963Z,990.2
2023-03-06T10:06:02.259Z,990.2
2023-03-06T10:07:01.001Z,990.2
2023-03-06T10:08:01.911Z,990.2
2023-03-06T10:09:02.922Z,990.2
2023-03-06T10:10:03.958Z,990.1
2023-03-06T10:11:04.986Z,990.2
2023-03-06T10:12:05.964Z,990.2
2023-03-06T10:13:06.926Z,990.2
2023-03-06T10:14:07.895Z,990.1
2023-03-06T10:15:08.994Z,990.2
2023-03-06T10:16:10.061Z,990.2
2023-03-06T10:17:10.953Z,990.1
2023-03-06T10:18:11.940Z,990.1
2023-03-06T10:19:12.954Z,990.1
2023-03-06T10:20:13.926Z,990.2
2023-03-06T10:21:19.172Z,990.1
2023-03-06T10:22:16.009Z,990.1
2023-03-06T10:23:16.959Z,990.1
2023-03-06T10:24:17.940Z,990.1
2023-03-06T10:25:18.949Z,990
2023-03-06T10:26:20.183Z,990
2023-03-06T10:27:20.952Z,990
2023-03-06T10:28:22.056Z,990.1
2023-03-06T10:29:22.967Z,990
2023-03-06T10:30:23.919Z,990
2023-03-06T10:31:25.039Z,990
2023-03-06T10:32:26.015Z,990
2023-03-06T10:33:27.028Z,990
2023-03-06T10:34:28.017Z,989.7
2023-03-06T10:35:30.617Z,990
2023-03-06T10:36:29.960Z,990
2023-03-06T10:37:32.301Z,989.9
2023-03-06T10:38:31.987Z,989.9
2023-03-06T10:39:32.887Z,989.9
2023-03-06T10:40:33.928Z,989.9
2023-03-06T10:41:34.905Z,989.9
2023-03-06T10:42:35.988Z,989.9
2023-03-06T10:43:36.969Z,989.9
2023-03-06T10:44:37.953Z,989.9
2023-03-06T10:45:48.790Z,989.8
2023-03-06T10:46:39.996Z,989.8
2023-03-06T10:47:40.946Z,989.8
2023-03-06T10:48:42.401Z,989.7
2023-03-06T10:49:42.950Z,989.8
2023-03-06T10:50:43.865Z,989.8
2023-03-06T10:51:44.941Z,989.7
2023-03-06T10:52:45.963Z,989.8
2023-03-06T10:53:47.017Z,989.8
2023-03-06T10:54:47.957Z,989.7
2023-03-06T10:55:48.977Z,989.7
2023-03-06T10:56:50.051Z,989.7
2023-03-06T10:57:50.988Z,989.7
2023-03-06T10:58:51.963Z,989.7
2023-03-06T10:59:52.992Z,989.7
2023-03-06T11:00:53.978Z,989.7
2023-03-06T11:01:55.099Z,989.7
2023-03-06T11:02:55.985Z,989.7
2023-03-06T11:03:56.997Z,989.6
2023-03-06T11:04:57.958Z,989.6
2023-03-06T11:05:58.996Z,989.6
2023-03-06T11:07:00.078Z,989.6
2023-03-06T11:08:00.954Z,989.6
2023-03-06T11:09:01.967Z,989.7
2023-03-06T11:10:02.911Z,989.6
2023-03-06T11:11:03.976Z,989.6
2023-03-06T11:12:04.991Z,989.6
2023-03-06T11:13:05.997Z,989.6
2023-03-06T11:14:06.918Z,989.6
2023-03-06T11:15:07.996Z,989.6
2023-03-06T11:16:08.973Z,989.6
2023-03-06T11:17:10.039Z,989.5
2023-03-06T11:18:11.004Z,989.5
2023-03-06T11:19:11.930Z,989.6
2023-03-06T11:20:13.003Z,989.5
2023-03-06T11:21:13.975Z,989.6
2023-03-06T11:22:14.977Z,989.5
2023-03-06T11:23:15.899Z,989.6
2023-03-06T11:24:16.916Z,989.6
2023-03-06T11:25:18.000Z,989.6
2023-03-06T11:26:18.916Z,989.6
2023-03-06T11:27:20.108Z,989.5
2023-03-06T11:28:20.996Z,989.5
2023-03-06T11:29:22.012Z,989.5
2023-03-06T11:30:23.022Z,989.5
2023-03-06T11:31:24.056Z,989.4
2023-03-06T11:32:25.092Z,989.4
2023-03-06T11:33:25.993Z,989.4
2023-03-06T11:34:26.974Z,989.4
2023-03-06T11:35:27.960Z,989.4
2023-03-06T11:36:28.956Z,989.5
2023-03-06T11:37:29.926Z,989.5
2023-03-06T11:38:31.012Z,989.4
2023-03-06T11:39:31.972Z,989.5
2023-03-06T11:40:33.035Z,989.4
2023-03-06T11:41:33.985Z,989.4
2023-03-06T11:42:35.070Z,989.4
2023-03-06T11:43:36.014Z,989.4
2023-03-06T11:44:36.954Z,989.4
2023-03-06T11:45:38.046Z,989.4
2023-03-06T11:46:39.064Z,989.3
2023-03-06T11:47:40.060Z,989.3
2023-03-06T11:48:41.092Z,989.3
2023-03-06T11:49:42.023Z,989.3
2023-03-06T11:50:43.082Z,989.3
2023-03-06T11:51:43.971Z,989.4
2023-03-06T11:52:44.936Z,989.4
2023-03-06T11:53:46.050Z,989.3
2023-03-06T11:54:49.992Z,989.2
2023-03-06T11:55:50.992Z,989.3
2023-03-06T11:56:51.954Z,989.3
2023-03-06T11:57:53.062Z,989.3
2023-03-06T11:58:54.006Z,989.3
2023-03-06T11:59:54.948Z,989.3
2023-03-06T12:00:55.974Z,989.3
2023-03-06T12:01:57.012Z,989.2
2023-03-06T12:02:58.036Z,989.1
2023-03-06T12:03:58.963Z,989.2
2023-03-06T12:05:00.075Z,989.1
2023-03-06T12:06:01.017Z,989.2
2023-03-06T12:07:02.004Z,989.1
2023-03-06T12:08:02.961Z,989.1
2023-03-06T12:09:04.038Z,989.1
2023-03-06T12:11:05.993Z,989
2023-03-06T12:12:07.014Z,989
2023-03-06T12:13:08.007Z,989
2023-03-06T12:14:08.942Z,989
2023-03-06T12:15:09.957Z,989
2023-03-06T12:16:10.960Z,989
2023-03-06T12:17:12.005Z,989
2023-03-06T12:18:12.996Z,989
2023-03-06T12:19:13.995Z,989
2023-03-06T12:20:15.077Z,989
2023-03-06T12:21:15.895Z,989
2023-03-06T12:22:16.976Z,989
2023-03-06T12:23:17.955Z,989.1
2023-03-06T12:24:18.940Z,989.1
2023-03-06T12:25:20.036Z,989.1
2023-03-06T12:26:20.974Z,989
2023-03-06T12:27:21.956Z,989
2023-03-06T12:28:23.091Z,989
2023-03-06T12:29:24.036Z,988.4
2023-03-06T12:30:25.035Z,988.9
2023-03-06T12:31:26.110Z,989
2023-03-06T12:32:27.072Z,989
2023-03-06T12:33:28.023Z,989.1
2023-03-06T12:34:29.037Z,989.1
2023-03-06T12:35:30.016Z,989.1
2023-03-06T12:36:31.014Z,989.1
2023-03-06T12:37:31.996Z,989
2023-03-06T12:38:32.965Z,989.1
2023-03-06T12:39:34.056Z,989
2023-03-06T12:40:35.062Z,989.1
2023-03-06T12:41:36.067Z,989
2023-03-06T12:42:37.022Z,989
2023-03-06T12:43:40.002Z,989
2023-03-06T12:44:38.983Z,989.1
2023-03-06T12:45:40.153Z,989
2023-03-06T12:46:41.035Z,989.1
2023-03-06T12:47:41.947Z,989.1
2023-03-06T12:48:42.995Z,989.1
2023-03-06T12:49:44.021Z,989.1
2023-03-06T12:50:45.063Z,989.1
2023-03-06T12:51:45.991Z,989.2
2023-03-06T12:52:47.030Z,989.2
2023-03-06T12:53:48.035Z,989.2
2023-03-06T12:54:49.037Z,989.1
2023-03-06T12:55:49.968Z,989.1
2023-03-06T12:56:51.072Z,989.1
2023-03-06T12:57:52.061Z,989.2
2023-03-06T12:58:53.122Z,989.1
2023-03-06T12:59:54.071Z,989.1
2023-03-06T13:00:58.666Z,989.1
2023-03-06T13:01:56.020Z,989.1
2023-03-06T13:02:56.999Z,989.1
2023-03-06T13:03:58.163Z,989.1
2023-03-06T13:04:59.019Z,989.1
2023-03-06T13:06:00.133Z,989
2023-03-06T13:07:01.047Z,989.1
2023-03-06T13:08:02.053Z,989.1
2023-03-06T13:09:03.044Z,988.3
2023-03-06T13:10:04.052Z,988.9
2023-03-06T13:11:05.013Z,989
2023-03-06T13:12:06.030Z,989
2023-03-06T13:13:07.033Z,989
2023-03-06T13:14:08.114Z,989.1
2023-03-06T13:15:09.084Z,989.1
2023-03-06T13:16:10.002Z,989.2